Time,TemperatureF,DewpointF,PressureIn,WindDirection,WindDirectionDegrees,WindSpeedMPH,WindSpeedGustMPH,Humidity,HourlyPrecipIn,Conditions,Clouds,dailyrainin,SolarRadiationWatts/m^2,SoftwareType,DateUTC
2013-08-02 00:02:00,57.7,55.7,29.92,NNW,348,0.0,0.0,93,0.00,,,0.00,0,Wunderground v.1.15,2013-08-02 04:02:00,
2013-08-02 00:07:00,57.6,55.6,29.92,NNW,348,0.0,0.0,93,0.00,,,0.00,0,Wunderground v.1.15,2013-08-02 04:07:00,
2013-08-02 00:12:00,57.5,55.5,29.92,NNW,348,0.0,0.0,93,0.00,,,0.00,0,Wunderground v.1.15,2013-08-02 04:12:00,
2013-08-02 00:17:00,57.4,55.4,29.93,NNW,348,0.0,0.0,93,0.00,,,0.00,0,Wunderground v.1.15,2013-08-02 04:17:00,
2013-08-02 00:27:00,57.2,55.2,29.92,NNW,348,0.0,0.0,93,0.00,,,0.00,0,Wunderground v.1.15,2013-08-02 04:27:00,
2013-08-02 00:32:00,57.1,55.1,29.93,NNW,348,0.0,0.0,93,0.00,,,0.00,0,Wunderground v.1.15,2013-08-02 04:32:00,
2013-08-02 00:37:00,57.2,55.2,29.93,NNW,348,0.0,0.0,93,0.00,,,0.00,0,Wunderground v.1.15,2013-08-02 04:37:00,
2013-08-02 00:52:00,57.0,55.0,29.92,NNW,348,0.0,0.0,93,0.00,,,0.00,0,Wunderground v.1.15,2013-08-02 04:52:00,
2013-08-02 00:58:00,56.9,54.9,29.92,NNW,348,0.0,0.0,93,0.00,,,0.00,0,Wunderground v.1.15,2013-08-02 04:58:00,
2013-08-02 01:07:00,56.8,54.8,29.93,NNW,348,0.0,0.0,93,0.00,,,0.00,0,Wunderground v.1.15,2013-08-02 05:07:00,
2013-08-02 01:12:00,56.7,54.7,29.93,NNW,348,0.0,0.0,93,0.00,,,0.00,0,Wunderground v.1.15,2013-08-02 05:12:00,
2013-08-02 01:22:00,56.5,54.5,29.92,NNW,348,0.0,0.0,93,0.00,,,0.00,0,Wunderground v.1.15,2013-08-02 05:22:00,
2013-08-02 01:27:00,56.5,54.5,29.92,NNW,348,0.0,0.0,93,0.00,,,0.00,0,Wunderground v.1.15,2013-08-02 05:27:00,
2013-08-02 01:37:00,56.4,54.4,29.92,NNW,348,0.0,1.0,93,0.00,,,0.00,0,Wunderground v.1.15,2013-08-02 05:37:00,
2013-08-02 01:42:00,56.3,54.3,29.92,NNW,348,0.0,1.0,93,0.00,,,0.00,0,Wunderground v.1.15,2013-08-02 05:42:00,
2013-08-02 01:47:00,56.2,54.5,29.92,North,349,0.0,1.0,94,0.00,,,0.00,0,Wunderground v.1.15,2013-08-02 05:47:00,
2013-08-02 01:52:00,56.1,54.4,29.92,NNW,348,0.0,1.0,94,0.00,,,0.00,0,Wunderground v.1.15,2013-08-02 05:52:00,
2013-08-02 01:57:00,56.0,54.3,29.92,NNW,348,0.0,0.0,94,0.00,,,0.00,0,Wunderground v.1.15,2013-08-02 05:57:00,
2013-08-02 02:07:00,56.0,54.3,29.92,NNW,348,0.0,0.0,94,0.00,,,0.00,0,Wunderground v.1.15,2013-08-02 06:07:00,
2013-08-02 02:12:00,56.0,54.3,29.92,NNW,348,0.0,0.0,94,0.00,,,0.00,0,Wunderground v.1.15,2013-08-02 06:12:00,
2013-08-02 02:17:00,56.0,54.3,29.92,NNW,348,0.0,0.0,94,0.00,,,0.00,0,Wunderground v.1.15,2013-08-02 06:17:00,
2013-08-02 02:27:00,55.8,54.1,29.92,NNW,348,0.0,0.0,94,0.00,,,0.00,0,Wunderground v.1.15,2013-08-02 06:27:00,
2013-08-02 02:32:00,55.7,54.0,29.91,NNW,348,0.0,0.0,94,0.00,,,0.00,0,Wunderground v.1.15,2013-08-02 06:32:00,
2013-08-02 02:42:00,55.6,54.2,29.91,NNW,348,0.0,0.0,95,0.00,,,0.00,0,Wunderground v.1.15,2013-08-02 06:42:00,
2013-08-02 02:47:00,55.6,54.2,29.90,NNW,348,0.0,0.0,95,0.00,,,0.00,0,Wunderground v.1.15,2013-08-02 06:47:00,
2013-08-02 02:52:00,55.6,54.2,29.90,NNW,348,0.0,0.0,95,0.00,,,0.00,0,Wunderground v.1.15,2013-08-02 06:52:00,
2013-08-02 02:57:00,55.5,54.1,29.90,NNW,348,0.0,0.0,95,0.00,,,0.00,0,Wunderground v.1.15,2013-08-02 06:57:00,
2013-08-02 03:07:00,55.4,54.0,29.90,NNW,348,0.0,0.0,95,0.00,,,0.00,0,Wunderground v.1.15,2013-08-02 07:07:00,
2013-08-02 03:12:00,55.4,54.0,29.90,NNW,348,0.0,0.0,95,0.00,,,0.00,0,Wunderground v.1.15,2013-08-02 07:12:00,
2013-08-02 03:17:00,55.5,54.1,29.90,NNW,348,0.0,0.0,95,0.00,,,0.00,0,Wunderground v.1.15,2013-08-02 07:17:00,
2013-08-02 03:22:00,55.4,54.0,29.90,NNW,348,0.0,0.0,95,0.00,,,0.00,0,Wunderground v.1.15,2013-08-02 07:22:00,
2013-08-02 03:32:00,55.1,53.7,29.91,NNW,348,0.0,0.0,95,0.00,,,0.00,0,Wunderground v.1.15,2013-08-02 07:32:00,
2013-08-02 03:42:00,54.8,53.4,29.91,North,349,0.0,0.0,95,0.00,,,0.00,0,Wunderground v.1.15,2013-08-02 07:42:00,
2013-08-02 03:47:00,54.7,53.3,29.91,NNW,348,0.0,0.0,95,0.00,,,0.00,0,Wunderground v.1.15,2013-08-02 07:47:00,
2013-08-02 03:57:00,54.6,53.2,29.91,NNW,348,0.0,0.0,95,0.00,,,0.00,0,Wunderground v.1.15,2013-08-02 07:57:00,
2013-08-02 04:07:00,54.5,53.1,29.91,NNW,348,0.0,0.0,95,0.00,,,0.00,0,Wunderground v.1.15,2013-08-02 08:07:00,
2013-08-02 04:12:00,54.4,53.0,29.91,NNW,348,0.0,0.0,95,0.00,,,0.00,0,Wunderground v.1.15,2013-08-02 08:12:00,
2013-08-02 04:17:00,54.4,53.0,29.91,NNW,348,0.0,0.0,95,0.00,,,0.00,0,Wunderground v.1.15,2013-08-02 08:17:00,
2013-08-02 04:22:00,54.3,52.9,29.91,North,349,0.0,0.0,95,0.00,,,0.00,0,Wunderground v.1.15,2013-08-02 08:22:00,
2013-08-02 04:32:00,54.1,52.7,29.91,NNW,348,0.0,0.0,95,0.00,,,0.00,0,Wunderground v.1.15,2013-08-02 08:32:00,
2013-08-02 04:37:00,54.0,52.9,29.91,NNW,348,0.0,0.0,96,0.00,,,0.00,0,Wunderground v.1.15,2013-08-02 08:37:00,
2013-08-02 04:42:00,54.0,52.9,29.91,NNW,348,0.0,0.0,96,0.00,,,0.00,0,Wunderground v.1.15,2013-08-02 08:42:00,
2013-08-02 04:47:00,54.0,52.9,29.92,North,349,0.0,0.0,96,0.00,,,0.00,0,Wunderground v.1.15,2013-08-02 08:47:00,
2013-08-02 04:52:00,54.0,52.9,29.92,NNW,348,0.0,0.0,96,0.00,,,0.00,0,Wunderground v.1.15,2013-08-02 08:52:00,
2013-08-02 04:57:00,53.9,52.8,29.92,NNW,348,0.0,0.0,96,0.00,,,0.00,0,Wunderground v.1.15,2013-08-02 08:57:00,
2013-08-02 05:07:00,53.8,52.7,29.92,NNW,348,0.0,0.0,96,0.00,,,0.00,0,Wunderground v.1.15,2013-08-02 09:07:00,
2013-08-02 05:12:00,53.9,52.8,29.92,NNW,348,0.0,0.0,96,0.00,,,0.00,0,Wunderground v.1.15,2013-08-02 09:12:00,
2013-08-02 05:17:00,53.9,52.8,29.93,NNW,348,0.0,0.0,96,0.00,,,0.00,0,Wunderground v.1.15,2013-08-02 09:17:00,
2013-08-02 05:22:00,53.8,52.7,29.93,NNW,348,0.0,0.0,96,0.00,,,0.00,0,Wunderground v.1.15,2013-08-02 09:22:00,
2013-08-02 05:32:00,53.7,52.6,29.93,NNW,348,0.0,0.0,96,0.00,,,0.00,0,Wunderground v.1.15,2013-08-02 09:32:00,
2013-08-02 05:37:00,53.7,52.6,29.93,NNW,348,0.0,0.0,96,0.00,,,0.00,0,Wunderground v.1.15,2013-08-02 09:37:00,
2013-08-02 05:42:00,53.7,52.6,29.93,NNW,348,0.0,0.0,96,0.00,,,0.00,0,Wunderground v.1.15,2013-08-02 09:42:00,
2013-08-02 05:47:00,53.7,52.6,29.93,NNW,348,0.0,0.0,96,0.00,,,0.00,0,Wunderground v.1.15,2013-08-02 09:47:00,
2013-08-02 05:52:00,53.7,52.6,29.93,North,349,0.0,0.0,96,0.00,,,0.00,0,Wunderground v.1.15,2013-08-02 09:52:00,
2013-08-02 05:57:00,53.9,53.1,29.93,NNW,348,0.0,0.0,97,0.00,,,0.00,0,Wunderground v.1.15,2013-08-02 09:57:00,
2013-08-02 06:07:00,53.6,52.5,29.93,North,349,0.0,0.0,96,0.00,,,0.00,0,Wunderground v.1.15,2013-08-02 10:07:00,
2013-08-02 06:17:00,53.5,52.4,29.94,NNW,348,0.0,0.0,96,0.00,,,0.00,0,Wunderground v.1.15,2013-08-02 10:17:00,
2013-08-02 06:27:00,53.5,52.4,29.94,NNW,348,0.0,0.0,96,0.00,,,0.00,0,Wunderground v.1.15,2013-08-02 10:27:00,
2013-08-02 06:32:00,53.4,52.3,29.93,NNW,348,0.0,0.0,96,0.00,,,0.00,7,Wunderground v.1.15,2013-08-02 10:32:00,
2013-08-02 06:42:00,53.4,52.6,29.93,NNW,348,0.0,0.0,97,0.00,,,0.00,14,Wunderground v.1.15,2013-08-02 10:42:00,
2013-08-02 06:47:00,53.7,52.9,29.94,NNW,348,0.0,0.0,97,0.00,,,0.00,18,Wunderground v.1.15,2013-08-02 10:47:00,
2013-08-02 06:52:00,53.9,53.1,29.94,North,349,0.0,0.0,97,0.00,,,0.00,25,Wunderground v.1.15,2013-08-02 10:52:00,
2013-08-02 06:57:00,54.0,53.2,29.94,North,349,0.0,0.0,97,0.00,,,0.00,42,Wunderground v.1.15,2013-08-02 10:57:00,
2013-08-02 07:07:00,54.2,53.4,29.94,NNW,348,0.0,0.0,97,0.00,,,0.00,63,Wunderground v.1.15,2013-08-02 11:07:00,
2013-08-02 07:17:00,54.9,54.1,29.94,NNW,348,0.0,0.0,97,0.00,,,0.00,91,Wunderground v.1.15,2013-08-02 11:17:00,
2013-08-02 07:27:00,56.0,55.2,29.94,North,349,0.0,0.0,97,0.00,,,0.00,142,Wunderground v.1.15,2013-08-02 11:27:00,
2013-08-02 07:32:00,56.6,55.8,29.94,NNW,348,0.0,0.0,97,0.00,,,0.00,77,Wunderground v.1.15,2013-08-02 11:32:00,
2013-08-02 07:42:00,57.9,57.1,29.94,NNW,348,0.0,0.0,97,0.00,,,0.00,70,Wunderground v.1.15,2013-08-02 11:42:00,
2013-08-02 07:47:00,58.2,57.4,29.94,NNW,348,0.0,0.0,97,0.00,,,0.00,183,Wunderground v.1.15,2013-08-02 11:47:00,
2013-08-02 07:52:00,58.6,57.8,29.93,NNW,346,0.0,0.0,97,0.00,,,0.00,190,Wunderground v.1.15,2013-08-02 11:52:00,
2013-08-02 07:57:00,59.2,58.3,29.93,NNW,345,0.0,0.0,97,0.00,,,0.00,214,Wunderground v.1.15,2013-08-02 11:57:00,
2013-08-02 08:07:00,60.7,59.8,29.93,NNW,345,0.0,0.0,97,0.00,,,0.00,283,Wunderground v.1.15,2013-08-02 12:07:00,
2013-08-02 08:12:00,61.2,60.1,29.92,NNW,343,0.0,0.0,96,0.00,,,0.00,318,Wunderground v.1.15,2013-08-02 12:12:00,
2013-08-02 08:22:00,62.3,59.9,29.93,West,271,0.0,2.0,92,0.00,,,0.00,250,Wunderground v.1.15,2013-08-02 12:22:00,
2013-08-02 08:32:00,63.0,58.7,29.93,West,271,0.0,0.0,86,0.00,,,0.00,278,Wunderground v.1.15,2013-08-02 12:32:00,
2013-08-02 08:37:00,63.1,58.2,29.93,West,271,0.0,0.0,84,0.00,,,0.00,121,Wunderground v.1.15,2013-08-02 12:37:00,
2013-08-02 08:42:00,63.5,59.2,29.93,West,271,0.0,0.0,86,0.00,,,0.00,355,Wunderground v.1.15,2013-08-02 12:42:00,
2013-08-02 08:52:00,64.7,59.8,29.93,WSW,256,0.0,0.0,84,0.00,,,0.00,174,Wunderground v.1.15,2013-08-02 12:52:00,
2013-08-02 08:57:00,64.9,59.3,29.93,WSW,256,0.0,0.0,82,0.00,,,0.00,338,Wunderground v.1.15,2013-08-02 12:57:00,
2013-08-02 09:07:00,65.3,59.3,29.93,WSW,256,0.0,0.0,81,0.00,,,0.00,243,Wunderground v.1.15,2013-08-02 13:07:00,
2013-08-02 09:17:00,65.7,59.0,29.92,WSW,256,0.0,0.0,79,0.00,,,0.00,153,Wunderground v.1.15,2013-08-02 13:17:00,
2013-08-02 09:27:00,65.9,59.6,29.93,WSW,256,0.0,0.0,80,0.00,,,0.00,135,Wunderground v.1.15,2013-08-02 13:27:00,
2013-08-02 09:37:00,66.0,60.0,29.92,WSW,256,0.0,4.0,81,0.00,,,0.00,239,Wunderground v.1.15,2013-08-02 13:37:00,
2013-08-02 09:47:00,66.7,60.3,29.92,WSW,256,0.0,4.0,80,0.00,,,0.00,265,Wunderground v.1.15,2013-08-02 13:47:00,
2013-08-02 09:57:00,67.4,60.7,29.92,SSW,200,0.0,0.0,79,0.00,,,0.00,274,Wunderground v.1.15,2013-08-02 13:57:00,
2013-08-02 10:07:00,68.1,60.6,29.93,SSW,211,0.0,0.0,77,0.00,,,0.00,209,Wunderground v.1.15,2013-08-02 14:07:00,
2013-08-02 10:12:00,68.3,60.8,29.93,SW,219,0.0,0.0,77,0.00,,,0.00,197,Wunderground v.1.15,2013-08-02 14:12:00,
2013-08-02 10:17:00,68.4,60.2,29.93,SSW,205,1.0,1.0,75,0.00,,,0.00,176,Wunderground v.1.15,2013-08-02 14:17:00,
2013-08-02 10:27:00,68.4,60.5,29.93,SW,215,0.0,0.0,76,0.00,,,0.00,151,Wunderground v.1.15,2013-08-02 14:27:00,
2013-08-02 10:37:00,68.3,60.4,29.94,SW,233,1.0,3.0,76,0.00,,,0.00,257,Wunderground v.1.15,2013-08-02 14:37:00,
2013-08-02 10:42:00,68.5,61.0,29.93,SW,228,1.0,5.0,77,0.00,,,0.00,274,Wunderground v.1.15,2013-08-02 14:42:00,
2013-08-02 10:47:00,68.6,61.1,29.93,SW,223,1.0,1.0,77,0.00,,,0.00,239,Wunderground v.1.15,2013-08-02 14:47:00,
2013-08-02 10:52:00,68.7,60.8,29.93,SW,223,2.0,6.0,76,0.00,,,0.00,251,Wunderground v.1.15,2013-08-02 14:52:00,
2013-08-02 10:57:00,68.7,61.2,29.93,SW,219,2.0,4.0,77,0.00,,,0.00,429,Wunderground v.1.15,2013-08-02 14:57:00,
2013-08-02 11:07:00,69.2,61.7,29.92,SW,225,3.0,3.0,77,0.00,,,0.00,322,Wunderground v.1.15,2013-08-02 15:07:00,
2013-08-02 11:12:00,69.3,61.4,29.92,SW,232,3.0,3.0,76,0.00,,,0.00,315,Wunderground v.1.15,2013-08-02 15:12:00,
2013-08-02 11:17:00,69.7,61.0,29.92,SSW,204,2.0,8.0,74,0.00,,,0.00,800,Wunderground v.1.15,2013-08-02 15:17:00,
2013-08-02 11:22:00,70.1,60.7,29.93,SW,236,6.0,9.0,72,0.00,,,0.00,837,Wunderground v.1.15,2013-08-02 15:22:00,
2013-08-02 11:27:00,70.6,61.5,29.93,SW,229,7.0,11.0,73,0.00,,,0.00,874,Wunderground v.1.15,2013-08-02 15:27:00,
2013-08-02 11:37:00,71.1,62.4,29.92,South,187,5.0,7.0,74,0.00,,,0.00,875,Wunderground v.1.15,2013-08-02 15:37:00,
2013-08-02 11:42:00,71.0,61.5,29.91,WSW,249,5.0,7.0,72,0.00,,,0.00,394,Wunderground v.1.15,2013-08-02 15:42:00,
2013-08-02 11:47:00,70.7,60.8,29.90,South,173,5.0,8.0,71,0.00,,,0.00,248,Wunderground v.1.15,2013-08-02 15:47:00,
2013-08-02 11:52:00,70.2,60.0,29.90,SW,227,6.0,8.0,70,0.00,,,0.00,870,Wunderground v.1.15,2013-08-02 15:52:00,
2013-08-02 12:02:00,70.9,60.6,29.92,South,187,7.0,7.0,70,0.00,,,0.00,837,Wunderground v.1.15,2013-08-02 16:02:00,
2013-08-02 12:07:00,71.3,61.4,29.92,WSW,247,6.0,6.0,71,0.00,,,0.00,911,Wunderground v.1.15,2013-08-02 16:07:00,
2013-08-02 12:12:00,71.5,61.6,29.92,SSW,192,5.0,6.0,71,0.00,,,0.00,615,Wunderground v.1.15,2013-08-02 16:12:00,
2013-08-02 12:17:00,71.7,61.4,29.93,South,182,5.0,8.0,70,0.00,,,0.00,830,Wunderground v.1.15,2013-08-02 16:17:00,
2013-08-02 12:22:00,71.7,61.4,29.92,SSE,157,6.0,8.0,70,0.00,,,0.00,956,Wunderground v.1.15,2013-08-02 16:22:00,
2013-08-02 12:27:00,71.6,61.7,29.92,SW,223,6.0,8.0,71,0.00,,,0.00,956,Wunderground v.1.15,2013-08-02 16:27:00,
2013-08-02 12:32:00,71.5,60.4,29.92,South,190,6.0,12.0,68,0.00,,,0.00,376,Wunderground v.1.15,2013-08-02 16:32:00,
2013-08-02 12:42:00,72.3,61.6,29.91,South,176,6.0,11.0,69,0.00,,,0.00,877,Wunderground v.1.15,2013-08-02 16:42:00,
2013-08-02 12:47:00,72.5,61.7,29.92,South,191,7.0,17.0,69,0.00,,,0.00,995,Wunderground v.1.15,2013-08-02 16:47:00,
2013-08-02 12:52:00,72.2,60.6,29.92,SSW,200,9.0,17.0,67,0.00,,,0.00,446,Wunderground v.1.15,2013-08-02 16:52:00,
2013-08-02 12:57:00,72.0,61.3,29.92,South,173,9.0,10.0,69,0.00,,,0.00,993,Wunderground v.1.15,2013-08-02 16:57:00,
2013-08-02 13:07:00,71.3,61.0,29.91,SW,217,9.0,9.0,70,0.00,,,0.00,336,Wunderground v.1.15,2013-08-02 17:07:00,
2013-08-02 13:12:00,70.9,60.6,29.91,SW,223,7.0,9.0,70,0.00,,,0.00,193,Wunderground v.1.15,2013-08-02 17:12:00,
2013-08-02 13:22:00,69.5,60.5,29.91,SW,226,8.0,13.0,73,0.00,,,0.00,155,Wunderground v.1.15,2013-08-02 17:22:00,
2013-08-02 13:27:00,69.3,60.7,29.90,South,185,7.0,7.0,74,0.00,,,0.00,295,Wunderground v.1.15,2013-08-02 17:27:00,
2013-08-02 13:32:00,69.5,61.2,29.91,SW,234,6.0,8.0,75,0.00,,,0.00,369,Wunderground v.1.15,2013-08-02 17:32:00,
2013-08-02 13:37:00,69.8,61.9,29.91,SSW,200,6.0,6.0,76,0.00,,,0.00,439,Wunderground v.1.15,2013-08-02 17:37:00,
2013-08-02 13:47:00,70.0,62.1,29.91,SW,232,6.0,14.0,76,0.00,,,0.00,160,Wunderground v.1.15,2013-08-02 17:47:00,
2013-08-02 13:52:00,69.7,62.2,29.91,SW,217,5.0,14.0,77,0.00,,,0.00,144,Wunderground v.1.15,2013-08-02 17:52:00,
2013-08-02 13:57:00,69.4,62.2,29.91,SSW,210,5.0,7.0,78,0.00,,,0.00,158,Wunderground v.1.15,2013-08-02 17:57:00,
2013-08-02 14:07:00,69.3,62.5,29.90,WSW,238,5.0,8.0,79,0.00,,,0.00,385,Wunderground v.1.15,2013-08-02 18:07:00,
2013-08-02 14:17:00,69.4,62.2,29.90,South,190,5.0,7.0,78,0.00,,,0.00,302,Wunderground v.1.15,2013-08-02 18:17:00,
2013-08-02 14:22:00,69.5,62.3,29.90,West,274,4.0,7.0,78,0.00,,,0.00,258,Wunderground v.1.15,2013-08-02 18:22:00,
2013-08-02 14:27:00,69.4,62.6,29.90,SSW,198,4.0,4.0,79,0.00,,,0.00,260,Wunderground v.1.15,2013-08-02 18:27:00,
2013-08-02 14:32:00,69.1,61.9,29.90,SSW,194,5.0,5.0,78,0.00,,,0.00,234,Wunderground v.1.15,2013-08-02 18:32:00,
2013-08-02 14:37:00,68.9,61.8,29.90,SW,223,5.0,19.0,78,0.00,,,0.00,244,Wunderground v.1.15,2013-08-02 18:37:00,
2013-08-02 14:47:00,68.2,61.4,29.90,SW,236,6.0,6.0,79,0.00,,,0.00,123,Wunderground v.1.15,2013-08-02 18:47:00,
2013-08-02 14:52:00,68.0,61.6,29.90,SW,226,6.0,19.0,80,0.00,,,0.00,107,Wunderground v.1.15,2013-08-02 18:52:00,
2013-08-02 15:02:00,67.6,61.6,29.90,SSW,209,7.0,7.0,81,0.00,,,0.00,163,Wunderground v.1.15,2013-08-02 19:02:00,
2013-08-02 15:07:00,67.6,61.9,29.89,SW,233,6.0,6.0,82,0.00,,,0.00,214,Wunderground v.1.15,2013-08-02 19:07:00,
2013-08-02 15:12:00,67.7,62.3,29.90,SSW,205,4.0,6.0,83,0.00,,,0.00,142,Wunderground v.1.15,2013-08-02 19:12:00,
2013-08-02 15:22:00,67.5,61.8,29.89,WSW,249,5.0,7.0,82,0.00,,,0.00,83,Wunderground v.1.15,2013-08-02 19:22:00,
2013-08-02 15:27:00,67.4,62.1,29.89,SSW,195,6.0,6.0,83,0.00,,,0.00,155,Wunderground v.1.15,2013-08-02 19:27:00,
2013-08-02 15:32:00,67.3,62.0,29.89,SW,223,5.0,9.0,83,0.00,,,0.00,114,Wunderground v.1.15,2013-08-02 19:32:00,
2013-08-02 15:42:00,67.5,62.2,29.89,SSW,198,5.0,14.0,83,0.00,,,0.00,146,Wunderground v.1.15,2013-08-02 19:42:00,
2013-08-02 15:47:00,67.6,62.3,29.88,SSW,198,5.0,5.0,83,0.00,,,0.00,79,Wunderground v.1.15,2013-08-02 19:47:00,
2013-08-02 15:57:00,67.7,62.3,29.88,South,185,4.0,4.0,83,0.00,,,0.00,79,Wunderground v.1.15,2013-08-02 19:57:00,
2013-08-02 16:07:00,67.7,62.3,29.88,South,185,4.0,5.0,83,0.00,,,0.00,109,Wunderground v.1.15,2013-08-02 20:07:00,
2013-08-02 16:12:00,67.8,62.4,29.88,SSW,211,4.0,5.0,83,0.00,,,0.00,190,Wunderground v.1.15,2013-08-02 20:12:00,
2013-08-02 16:17:00,67.9,62.5,29.88,WSW,255,5.0,5.0,83,0.00,,,0.00,171,Wunderground v.1.15,2013-08-02 20:17:00,
2013-08-02 16:22:00,68.1,62.7,29.88,SW,223,4.0,8.0,83,0.00,,,0.00,214,Wunderground v.1.15,2013-08-02 20:22:00,
2013-08-02 16:27:00,68.3,62.9,29.88,SSW,198,4.0,4.0,83,0.00,,,0.00,192,Wunderground v.1.15,2013-08-02 20:27:00,
2013-08-02 16:32:00,68.4,62.7,29.88,SW,227,4.0,6.0,82,0.00,,,0.00,139,Wunderground v.1.15,2013-08-02 20:32:00,
2013-08-02 16:37:00,68.4,63.0,29.87,South,189,4.0,14.0,83,0.00,,,0.00,183,Wunderground v.1.15,2013-08-02 20:37:00,
2013-08-02 16:42:00,68.5,63.1,29.87,SSW,199,5.0,14.0,83,0.00,,,0.00,144,Wunderground v.1.15,2013-08-02 20:42:00,
2013-08-02 16:47:00,68.6,63.2,29.87,SW,230,5.0,5.0,83,0.00,,,0.00,100,Wunderground v.1.15,2013-08-02 20:47:00,
2013-08-02 16:57:00,68.7,63.3,29.86,West,263,3.0,3.0,83,0.00,,,0.00,97,Wunderground v.1.15,2013-08-02 20:57:00,
2013-08-02 17:07:00,68.8,63.4,29.86,SSW,202,2.0,2.0,83,0.00,,,0.00,107,Wunderground v.1.15,2013-08-02 21:07:00,
2013-08-02 17:12:00,68.9,63.5,29.86,West,263,2.0,2.0,83,0.00,,,0.00,102,Wunderground v.1.15,2013-08-02 21:12:00,
2013-08-02 17:17:00,69.0,63.6,29.86,WSW,250,1.0,2.0,83,0.00,,,0.00,63,Wunderground v.1.15,2013-08-02 21:17:00,
2013-08-02 17:22:00,69.0,63.6,29.86,WSW,246,1.0,2.0,83,0.00,,,0.00,84,Wunderground v.1.15,2013-08-02 21:22:00,
2013-08-02 17:32:00,69.2,63.8,29.86,WSW,252,3.0,9.0,83,0.00,,,0.00,95,Wunderground v.1.15,2013-08-02 21:32:00,
2013-08-02 17:42:00,69.4,64.0,29.85,SW,232,2.0,11.0,83,0.00,,,0.00,97,Wunderground v.1.15,2013-08-02 21:42:00,
2013-08-02 17:52:00,69.7,64.3,29.85,West,267,2.0,11.0,83,0.00,,,0.00,225,Wunderground v.1.15,2013-08-02 21:52:00,
2013-08-02 17:57:00,70.1,64.7,29.85,SW,228,2.0,2.0,83,0.00,,,0.00,265,Wunderground v.1.15,2013-08-02 21:57:00,
2013-08-02 18:07:00,70.6,64.8,29.85,WSW,241,2.0,6.0,82,0.00,,,0.00,214,Wunderground v.1.15,2013-08-02 22:07:00,
2013-08-02 18:12:00,70.5,64.7,29.85,WSW,245,3.0,6.0,82,0.00,,,0.00,202,Wunderground v.1.15,2013-08-02 22:12:00,
2013-08-02 18:22:00,70.6,64.8,29.86,WSW,243,2.0,4.0,82,0.00,,,0.00,199,Wunderground v.1.15,2013-08-02 22:22:00,
2013-08-02 18:32:00,70.8,65.0,29.85,SW,217,2.0,9.0,82,0.00,,,0.00,176,Wunderground v.1.15,2013-08-02 22:32:00,
2013-08-02 18:42:00,70.9,65.5,29.86,WSW,241,1.0,9.0,83,0.00,,,0.00,158,Wunderground v.1.15,2013-08-02 22:42:00,
2013-08-02 18:47:00,70.9,65.5,29.86,WSW,247,1.0,1.0,83,0.00,,,0.00,118,Wunderground v.1.15,2013-08-02 22:47:00,
2013-08-02 18:52:00,70.9,65.5,29.85,West,261,1.0,9.0,83,0.00,,,0.00,109,Wunderground v.1.15,2013-08-02 22:52:00,
2013-08-02 18:57:00,70.9,65.8,29.86,South,182,0.0,0.0,84,0.00,,,0.00,100,Wunderground v.1.15,2013-08-02 22:57:00,
2013-08-02 19:07:00,70.9,65.5,29.85,West,263,0.0,0.0,83,0.00,,,0.00,105,Wunderground v.1.15,2013-08-02 23:07:00,
2013-08-02 19:12:00,70.9,65.8,29.85,West,267,0.0,0.0,84,0.00,,,0.00,116,Wunderground v.1.15,2013-08-02 23:12:00,
2013-08-02 19:22:00,70.6,65.5,29.85,WNW,298,0.0,0.0,84,0.00,,,0.00,86,Wunderground v.1.15,2013-08-02 23:22:00,
2013-08-02 19:27:00,70.5,65.4,29.86,WNW,298,0.0,0.0,84,0.00,,,0.00,79,Wunderground v.1.15,2013-08-02 23:27:00,
2013-08-02 19:37:00,70.3,65.6,29.86,WNW,298,0.0,9.0,85,0.00,,,0.00,62,Wunderground v.1.15,2013-08-02 23:37:00,
2013-08-02 19:42:00,70.3,65.6,29.86,WNW,298,0.0,9.0,85,0.00,,,0.00,58,Wunderground v.1.15,2013-08-02 23:42:00,
2013-08-02 19:47:00,70.2,65.8,29.86,WNW,298,0.0,9.0,86,0.00,,,0.00,51,Wunderground v.1.15,2013-08-02 23:47:00,
2013-08-02 19:52:00,70.1,65.7,29.86,WNW,298,0.0,9.0,86,0.00,,,0.00,44,Wunderground v.1.15,2013-08-02 23:52:00,
2013-08-02 20:02:00,69.9,65.5,29.86,WNW,298,0.0,0.0,86,0.00,,,0.00,37,Wunderground v.1.15,2013-08-03 00:02:00,
2013-08-02 20:07:00,69.9,65.5,29.86,WNW,298,0.0,0.0,86,0.00,,,0.00,39,Wunderground v.1.15,2013-08-03 00:07:00,
2013-08-02 20:12:00,69.8,65.8,29.86,WNW,298,0.0,0.0,87,0.00,,,0.00,32,Wunderground v.1.15,2013-08-03 00:12:00,
2013-08-02 20:17:00,69.7,65.7,29.86,WNW,298,0.0,0.0,87,0.00,,,0.00,26,Wunderground v.1.15,2013-08-03 00:17:00,
2013-08-02 20:22:00,69.6,65.6,29.87,WNW,298,0.0,0.0,87,0.00,,,0.00,19,Wunderground v.1.15,2013-08-03 00:22:00,
2013-08-02 20:32:00,69.3,65.6,29.87,WNW,298,0.0,4.0,88,0.00,,,0.00,11,Wunderground v.1.15,2013-08-03 00:32:00,
2013-08-02 20:37:00,69.2,65.5,29.87,WNW,298,0.0,4.0,88,0.00,,,0.00,9,Wunderground v.1.15,2013-08-03 00:37:00,
2013-08-02 20:47:00,68.9,65.5,29.88,WNW,298,0.0,4.0,89,0.00,,,0.00,0,Wunderground v.1.15,2013-08-03 00:47:00,
2013-08-02 20:52:00,68.7,65.3,29.88,WNW,298,0.0,4.0,89,0.00,,,0.00,0,Wunderground v.1.15,2013-08-03 00:52:00,
2013-08-02 21:02:00,68.3,65.3,29.88,WNW,298,0.0,0.0,90,0.00,,,0.00,0,Wunderground v.1.15,2013-08-03 01:02:00,
2013-08-02 21:07:00,68.0,65.0,29.88,WNW,298,0.0,0.0,90,0.00,,,0.00,0,Wunderground v.1.15,2013-08-03 01:07:00,
2013-08-02 21:17:00,67.6,64.9,29.88,WNW,298,0.0,0.0,91,0.00,,,0.00,0,Wunderground v.1.15,2013-08-03 01:17:00,
2013-08-02 21:27:00,67.1,64.7,29.88,WNW,298,0.0,0.0,92,0.00,,,0.00,0,Wunderground v.1.15,2013-08-03 01:27:00,
2013-08-02 21:32:00,67.0,64.6,29.88,WNW,298,0.0,0.0,92,0.00,,,0.00,0,Wunderground v.1.15,2013-08-03 01:32:00,
2013-08-02 21:37:00,66.8,64.4,29.89,WNW,298,0.0,0.0,92,0.00,,,0.00,0,Wunderground v.1.15,2013-08-03 01:37:00,
2013-08-02 21:42:00,66.6,64.2,29.89,WNW,298,0.0,0.0,92,0.00,,,0.00,0,Wunderground v.1.15,2013-08-03 01:42:00,
2013-08-02 21:52:00,66.3,64.2,29.89,WNW,298,0.0,0.0,93,0.00,,,0.00,0,Wunderground v.1.15,2013-08-03 01:52:00,
2013-08-02 21:57:00,66.1,64.0,29.90,WNW,298,0.0,0.0,93,0.00,,,0.00,0,Wunderground v.1.15,2013-08-03 01:57:00,
2013-08-02 22:07:00,65.8,63.7,29.90,WNW,298,0.0,0.0,93,0.00,,,0.00,0,Wunderground v.1.15,2013-08-03 02:07:00,
2013-08-02 22:17:00,65.5,63.7,29.90,WNW,298,0.0,0.0,94,0.00,,,0.00,0,Wunderground v.1.15,2013-08-03 02:17:00,
2013-08-02 22:22:00,65.4,63.6,29.90,WNW,298,0.0,0.0,94,0.00,,,0.00,0,Wunderground v.1.15,2013-08-03 02:22:00,
2013-08-02 22:27:00,65.4,63.6,29.90,WNW,298,0.0,0.0,94,0.00,,,0.00,0,Wunderground v.1.15,2013-08-03 02:27:00,
2013-08-02 22:32:00,65.2,63.4,29.90,WNW,298,0.0,0.0,94,0.00,,,0.00,0,Wunderground v.1.15,2013-08-03 02:32:00,
2013-08-02 22:37:00,65.1,63.3,29.90,WNW,298,0.0,0.0,94,0.00,,,0.00,0,Wunderground v.1.15,2013-08-03 02:37:00,
2013-08-02 22:42:00,64.9,63.1,29.90,WNW,298,0.0,0.0,94,0.00,,,0.00,0,Wunderground v.1.15,2013-08-03 02:42:00,
2013-08-02 22:52:00,64.8,63.3,29.90,WNW,298,0.0,0.0,95,0.00,,,0.00,0,Wunderground v.1.15,2013-08-03 02:52:00,
2013-08-02 22:57:00,64.8,63.3,29.90,WNW,298,0.0,0.0,95,0.00,,,0.00,0,Wunderground v.1.15,2013-08-03 02:57:00,
2013-08-02 23:07:00,64.9,63.4,29.90,WNW,298,0.0,0.0,95,0.00,,,0.00,0,Wunderground v.1.15,2013-08-03 03:07:00,
2013-08-02 23:12:00,65.2,64.0,29.90,WNW,298,0.0,0.0,96,0.00,,,0.00,0,Wunderground v.1.15,2013-08-03 03:12:00,
2013-08-02 23:17:00,65.3,64.1,29.91,WNW,298,0.0,0.0,96,0.00,,,0.00,0,Wunderground v.1.15,2013-08-03 03:17:00,
2013-08-02 23:22:00,65.4,64.2,29.91,WNW,298,0.0,0.0,96,0.00,,,0.00,0,Wunderground v.1.15,2013-08-03 03:22:00,
2013-08-02 23:37:00,65.3,63.8,29.90,WNW,298,0.0,0.0,95,0.00,,,0.00,0,Wunderground v.1.15,2013-08-03 03:37:00,
2013-08-02 23:42:00,65.2,63.7,29.90,WNW,298,0.0,0.0,95,0.00,,,0.00,0,Wunderground v.1.15,2013-08-03 03:42:00,
2013-08-02 23:47:00,65.3,64.1,29.90,WNW,298,0.0,0.0,96,0.00,,,0.00,0,Wunderground v.1.15,2013-08-03 03:47:00,
2013-08-02 23:52:00,65.4,64.2,29.90,WNW,298,0.0,0.0,96,0.00,,,0.00,0,Wunderground v.1.15,2013-08-03 03:52:00,
2013-08-02 23:57:00,65.4,64.2,29.90,WNW,298,0.0,0.0,96,0.00,,,0.00,0,Wunderground v.1.15,2013-08-03 03:57:00,